Time;durP1;ratioP1;P1;durP2;ratioP2;P2;SDS_P1;SDS_P2;PMS_P1;PMS_P2;Temp;Humidity;BMP_temperature;BMP_pressure;BME280_temperature;BME280_humidity;BME280_pressure;Samples;Min_cycle;Max_cycle;Signal;HPM_P1;HPM_P2
2022/09/11 00:02:29;;;;;;;9.75;6.60;;;;;;;;;;5111064;27;20397;-77
2022/09/11 00:04:55;;;;;;;9.23;6.00;;;;;;;;;;5111522;28;20026;-77
2022/09/11 00:07:21;;;;;;;10.02;6.43;;;;;;;;;;5111466;28;20414;-77
2022/09/11 00:13:33;;;;;;;9.68;6.95;;;;;;;;;;5112085;27;20388;-76
2022/09/11 00:16:01;;;;;;;10.57;6.90;;;;;;;;;;5111099;28;20063;-79
2022/09/11 00:18:28;;;;;;;10.85;7.18;;;;;;;;;;5111382;28;20073;-78
2022/09/11 00:21:12;;;;;;;10.90;7.75;;;;;;;;;;5111739;27;20537;-76
2022/09/11 00:23:54;;;;;;;10.30;7.13;;;;;;;;;;5111696;27;20112;-77
2022/09/11 00:26:20;;;;;;;10.55;7.60;;;;;;;;;;5111382;28;20024;-76
2022/09/11 00:30:55;;;;;;;11.07;8.10;;;;;;;;;;5111076;27;20983;-77
2022/09/11 00:33:22;;;;;;;12.20;7.70;;;;;;;;;;5111438;28;20051;-78
2022/09/11 00:35:53;;;;;;;12.50;7.95;;;;;;;;;;5111123;28;20440;-78
2022/09/11 00:38:19;;;;;;;11.93;8.25;;;;;;;;;;5111534;28;20024;-78
2022/09/11 00:40:46;;;;;;;14.27;7.57;;;;;;;;;;5111309;28;20074;-78
2022/09/11 00:43:26;;;;;;;11.82;7.78;;;;;;;;;;5111561;27;20532;-78
2022/09/11 00:45:56;;;;;;;10.95;7.28;;;;;;;;;;5111410;28;20020;-79
2022/09/11 00:48:41;;;;;;;8.90;6.75;;;;;;;;;;5111564;27;20381;-76
2022/09/11 00:51:07;;;;;;;8.63;6.50;;;;;;;;;;5111094;28;20020;-76
2022/09/11 00:55:18;;;;;;;10.23;7.20;;;;;;;;;;5111548;27;20404;-77
2022/09/11 00:57:50;;;;;;;12.43;7.35;;;;;;;;;;5111077;28;20462;-77
2022/09/11 01:00:51;;;;;;;9.90;6.70;;;;;;;;;;5111493;27;20573;-77
2022/09/11 01:05:23;;;;;;;7.80;5.72;;;;;;;;;;5111185;27;20835;-77
2022/09/11 01:07:53;;;;;;;8.07;5.68;;;;;;;;;;5111668;28;20031;-77
2022/09/11 01:10:19;;;;;;;8.63;5.63;;;;;;;;;;5111285;28;20021;-77
2022/09/11 01:13:00;;;;;;;8.35;5.30;;;;;;;;;;5110851;28;20052;-76
2022/09/11 01:18:17;;;;;;;9.00;5.47;;;;;;;;;;5111428;27;20605;-76
2022/09/11 01:22:36;;;;;;;10.63;6.05;;;;;;;;;;5111931;27;20569;-76
2022/09/11 01:25:08;;;;;;;9.98;6.35;;;;;;;;;;5110922;28;20028;-77
2022/09/11 01:27:56;;;;;;;8.05;6.05;;;;;;;;;;5111512;27;20561;-77
2022/09/11 01:30:24;;;;;;;8.88;6.13;;;;;;;;;;5111382;28;20019;-76
2022/09/11 01:32:53;;;;;;;9.55;6.35;;;;;;;;;;5111072;28;20016;-76
2022/09/11 01:35:27;;;;;;;8.57;6.13;;;;;;;;;;5111528;28;20020;-76
2022/09/11 01:38:13;;;;;;;10.48;5.88;;;;;;;;;;5111487;27;20393;-77
2022/09/11 01:41:19;;;;;;;11.77;6.85;;;;;;;;;;5112004;27;20621;-77
2022/09/11 01:45:07;;;;;;;8.68;6.30;;;;;;;;;;5111725;27;20389;-77
2022/09/11 01:47:34;;;;;;;9.85;7.07;;;;;;;;;;5111053;28;20353;-76
2022/09/11 01:50:08;;;;;;;11.07;6.80;;;;;;;;;;5111290;28;20044;-76
2022/09/11 01:54:04;;;;;;;10.15;6.75;;;;;;;;;;5111287;27;20565;-76
2022/09/11 01:56:34;;;;;;;9.75;7.13;;;;;;;;;;5111389;28;20030;-76
2022/09/11 02:01:50;;;;;;;9.80;6.07;;;;;;;;;;5111218;27;20561;-77
2022/09/11 02:04:20;;;;;;;9.63;5.63;;;;;;;;;;5111395;28;20055;-77
2022/09/11 02:06:49;;;;;;;9.23;6.28;;;;;;;;;;5111334;28;20055;-78
2022/09/11 02:12:35;;;;;;;9.23;5.65;;;;;;;;;;5111649;27;20407;-77
2022/09/11 02:15:01;;;;;;;9.07;6.30;;;;;;;;;;5109827;28;20040;-76
2022/09/11 02:19:02;;;;;;;10.02;6.88;;;;;;;;;;5111597;27;20392;-76
2022/09/11 02:21:29;;;;;;;10.52;6.90;;;;;;;;;;5110971;28;20468;-76
2022/09/11 02:23:56;;;;;;;11.55;7.03;;;;;;;;;;5111336;28;20035;-77
2022/09/11 02:30:06;;;;;;;10.80;6.55;;;;;;;;;;5110965;27;20802;-77
2022/09/11 02:32:35;;;;;;;11.48;6.65;;;;;;;;;;5111768;28;20028;-76
2022/09/11 02:37:14;;;;;;;8.38;5.50;;;;;;;;;;5111110;27;20418;-76
2022/09/11 02:39:54;;;;;;;10.95;7.03;;;;;;;;;;5111535;28;20102;-76
2022/09/11 02:42:38;;;;;;;8.63;6.18;;;;;;;;;;5111197;28;20495;-77
2022/09/11 02:45:13;;;;;;;8.20;5.85;;;;;;;;;;5111296;28;20058;-77
2022/09/11 02:48:18;;;;;;;10.57;6.60;;;;;;;;;;5111233;28;20023;-76
2022/09/11 02:51:00;;;;;;;9.48;6.32;;;;;;;;;;5048143;28;20029;-76
2022/09/11 02:53:26;;;;;;;12.70;7.22;;;;;;;;;;5031843;28;20041;-76
2022/09/11 02:58:11;;;;;;;9.05;6.72;;;;;;;;;;5111250;27;20541;-77
2022/09/11 03:02:49;;;;;;;10.57;7.40;;;;;;;;;;5111950;27;20445;-77
2022/09/11 03:05:39;;;;;;;11.38;7.78;;;;;;;;;;5111986;27;20389;-77
2022/09/11 03:08:06;;;;;;;12.35;7.55;;;;;;;;;;5111412;28;20032;-77
2022/09/11 03:11:36;;;;;;;11.07;7.10;;;;;;;;;;5111221;27;20388;-77
2022/09/11 03:14:02;;;;;;;10.27;6.60;;;;;;;;;;5111548;28;20095;-76
2022/09/11 03:16:28;;;;;;;8.38;5.82;;;;;;;;;;5111342;28;20028;-77
2022/09/11 03:20:46;;;;;;;9.95;6.57;;;;;;;;;;5111537;27;20419;-76
2022/09/11 03:23:12;;;;;;;8.05;6.40;;;;;;;;;;5111343;28;20027;-76
2022/09/11 03:25:41;;;;;;;10.13;6.43;;;;;;;;;;5111168;28;20503;-76
2022/09/11 03:28:08;;;;;;;9.55;6.65;;;;;;;;;;5111366;28;20032;-76
2022/09/11 03:31:12;;;;;;;10.10;6.28;;;;;;;;;;5111405;27;20573;-77
2022/09/11 03:33:39;;;;;;;9.88;6.60;;;;;;;;;;5111343;28;20020;-76
2022/09/11 03:36:05;;;;;;;10.68;6.80;;;;;;;;;;5111251;28;20492;-78
2022/09/11 03:38:31;;;;;;;9.85;6.40;;;;;;;;;;5111102;28;20059;-77
2022/09/11 03:40:58;;;;;;;8.20;6.45;;;;;;;;;;5127326;28;20380;-77
2022/09/11 03:44:01;;;;;;;19.25;7.65;;;;;;;;;;5111762;27;20792;-77
2022/09/11 03:50:02;;;;;;;9.05;6.65;;;;;;;;;;5112183;27;20934;-77
2022/09/11 03:54:06;;;;;;;12.27;7.30;;;;;;;;;;5111166;27;20628;-77
2022/09/11 03:57:42;;;;;;;11.77;6.78;;;;;;;;;;5111610;27;20384;-77
2022/09/11 04:02:13;;;;;;;15.02;6.80;;;;;;;;;;5112225;27;20393;-77
2022/09/11 04:04:40;;;;;;;9.07;6.50;;;;;;;;;;5111391;28;20385;-77
2022/09/11 04:14:12;;;;;;;8.77;5.57;;;;;;;;;;5111550;27;20396;-77
2022/09/11 04:16:48;;;;;;;11.85;7.03;;;;;;;;;;5112338;27;20592;-78
2022/09/11 04:22:43;;;;;;;10.23;6.82;;;;;;;;;;5110938;27;20959;-77
2022/09/11 04:25:10;;;;;;;10.60;6.40;;;;;;;;;;5111604;28;20046;-77
2022/09/11 04:35:56;;;;;;;11.13;6.20;;;;;;;;;;5111300;27;20400;-77
2022/09/11 04:41:36;;;;;;;10.32;5.57;;;;;;;;;;5111682;27;20633;-77
2022/09/11 04:44:02;;;;;;;14.00;7.00;;;;;;;;;;5111415;28;20016;-78
2022/09/11 04:46:28;;;;;;;10.75;6.43;;;;;;;;;;5111376;28;20052;-77
2022/09/11 04:48:58;;;;;;;10.50;6.72;;;;;;;;;;5111154;28;20028;-77
2022/09/11 04:51:26;;;;;;;11.70;5.85;;;;;;;;;;5111176;28;20020;-78
2022/09/11 04:55:44;;;;;;;11.35;7.45;;;;;;;;;;5111867;27;20389;-77
2022/09/11 04:58:11;;;;;;;10.80;6.20;;;;;;;;;;5111537;28;20062;-77
2022/09/11 05:00:37;;;;;;;8.88;6.22;;;;;;;;;;5111307;28;20460;-77
2022/09/11 05:04:27;;;;;;;10.68;6.38;;;;;;;;;;5111162;27;20569;-78
2022/09/11 05:06:53;;;;;;;8.98;6.88;;;;;;;;;;5111608;28;20024;-78
2022/09/11 05:09:20;;;;;;;9.43;5.75;;;;;;;;;;5111468;28;20403;-77
2022/09/11 05:11:46;;;;;;;8.10;5.22;;;;;;;;;;5110951;28;20024;-77
2022/09/11 05:17:49;;;;;;;11.85;6.88;;;;;;;;;;5111573;27;20592;-78
2022/09/11 05:20:17;;;;;;;9.23;5.88;;;;;;;;;;5111448;28;20077;-78
2022/09/11 05:25:31;;;;;;;9.38;5.88;;;;;;;;;;5111317;27;20385;-77
2022/09/11 05:27:57;;;;;;;8.45;6.20;;;;;;;;;;5110138;28;20020;-78
2022/09/11 05:30:24;;;;;;;9.50;5.97;;;;;;;;;;5110019;28;20020;-78
2022/09/11 05:32:54;;;;;;;8.38;5.43;;;;;;;;;;5111026;28;20077;-78
2022/09/11 05:35:20;;;;;;;7.53;4.75;;;;;;;;;;5111519;28;20077;-78
2022/09/11 05:40:43;;;;;;;8.02;5.35;;;;;;;;;;5070746;28;20392;-78
2022/09/11 05:46:59;;;;;;;7.05;4.50;;;;;;;;;;5111083;27;20442;-77
2022/09/11 05:49:25;;;;;;;9.50;4.95;;;;;;;;;;5111470;28;20023;-78
2022/09/11 05:51:51;;;;;;;9.50;5.05;;;;;;;;;;5111382;28;20035;-77
2022/09/11 05:54:47;;;;;;;9.27;5.32;;;;;;;;;;5111634;27;20116;-77
2022/09/11 05:58:11;;;;;;;10.30;5.63;;;;;;;;;;5111537;27;20385;-78
2022/09/11 06:00:39;;;;;;;7.30;4.88;;;;;;;;;;5111142;28;20027;-78
2022/09/11 06:03:06;;;;;;;8.18;4.93;;;;;;;;;;5111280;28;20046;-78
2022/09/11 06:05:32;;;;;;;7.75;4.80;;;;;;;;;;5111672;28;20111;-78
2022/09/11 06:08:00;;;;;;;8.10;5.43;;;;;;;;;;5110823;28;20540;-77
2022/09/11 06:10:27;;;;;;;11.82;5.90;;;;;;;;;;5111160;28;20016;-77
2022/09/11 06:14:58;;;;;;;6.72;4.30;;;;;;;;;;5111104;27;20397;-77
2022/09/11 06:17:45;;;;;;;7.45;3.70;;;;;;;;;;5111571;27;20577;-77
2022/09/11 06:20:11;;;;;;;6.47;4.05;;;;;;;;;;5110943;28;20094;-76
2022/09/11 06:22:38;;;;;;;7.70;4.07;;;;;;;;;;5111367;28;20020;-77
2022/09/11 06:25:04;;;;;;;7.45;3.65;;;;;;;;;;5111579;28;20023;-76
2022/09/11 06:27:30;;;;;;;7.60;4.25;;;;;;;;;;5110826;28;20038;-77
2022/09/11 06:29:56;;;;;;;7.97;4.80;;;;;;;;;;5111224;28;20027;-78
2022/09/11 06:34:10;;;;;;;7.80;3.97;;;;;;;;;;5173004;27;20110;-77
2022/09/11 06:38:08;;;;;;;6.10;3.90;;;;;;;;;;5112166;27;20392;-78
2022/09/11 06:40:36;;;;;;;6.05;3.65;;;;;;;;;;5111417;28;20491;-78
2022/09/11 06:44:40;;;;;;;6.32;3.83;;;;;;;;;;5071526;28;20822;-78
2022/09/11 06:47:07;;;;;;;7.68;4.00;;;;;;;;;;5070798;28;20033;-78
2022/09/11 06:49:33;;;;;;;6.22;3.67;;;;;;;;;;5069019;28;20096;-78
2022/09/11 06:53:20;;;;;;;9.32;4.97;;;;;;;;;;5112235;27;20560;-78
2022/09/11 06:55:46;;;;;;;5.80;3.88;;;;;;;;;;5111067;28;20028;-77
2022/09/11 06:58:12;;;;;;;8.32;4.00;;;;;;;;;;5111765;28;20024;-78
2022/09/11 07:04:33;;;;;;;6.40;4.15;;;;;;;;;;5111015;27;20566;-78
2022/09/11 07:06:59;;;;;;;5.45;3.25;;;;;;;;;;5111695;28;20031;-78
2022/09/11 07:12:13;;;;;;;5.75;3.60;;;;;;;;;;5112053;27;20605;-77
2022/09/11 07:16:02;;;;;;;6.47;3.55;;;;;;;;;;5111593;27;20553;-77
2022/09/11 07:18:35;;;;;;;5.80;3.38;;;;;;;;;;5111079;28;20118;-77
2022/09/11 07:21:58;;;;;;;5.30;3.20;;;;;;;;;;5112154;27;20393;-78
2022/09/11 07:24:24;;;;;;;6.18;3.30;;;;;;;;;;5110941;28;20016;-79
2022/09/11 07:26:50;;;;;;;7.43;3.20;;;;;;;;;;5111664;28;20016;-78
2022/09/11 07:29:17;;;;;;;8.30;3.70;;;;;;;;;;5111468;28;20491;-77
2022/09/11 07:31:44;;;;;;;8.35;4.45;;;;;;;;;;5110729;28;20463;-77
2022/09/11 07:34:10;;;;;;;6.00;3.28;;;;;;;;;;5111283;28;20027;-77
2022/09/11 07:36:36;;;;;;;5.25;3.50;;;;;;;;;;5111145;28;20023;-77
2022/09/11 07:39:03;;;;;;;7.07;3.80;;;;;;;;;;5110710;28;20020;-78
2022/09/11 07:41:30;;;;;;;4.57;2.90;;;;;;;;;;5111245;28;20084;-78
2022/09/11 07:44:02;;;;;;;5.35;3.08;;;;;;;;;;5111011;28;20055;-77
2022/09/11 07:48:32;;;;;;;5.40;2.95;;;;;;;;;;5111901;27;20401;-77
2022/09/11 07:51:01;;;;;;;6.03;3.47;;;;;;;;;;5111578;28;20024;-77
2022/09/11 07:53:37;;;;;;;4.20;2.63;;;;;;;;;;5110913;28;20024;-77
2022/09/11 07:56:07;;;;;;;5.03;2.90;;;;;;;;;;5111322;28;20027;-78
2022/09/11 07:58:46;;;;;;;6.70;3.45;;;;;;;;;;5111205;27;20564;-78
2022/09/11 08:01:16;;;;;;;5.63;3.00;;;;;;;;;;5111453;28;20365;-78
2022/09/11 08:03:43;;;;;;;5.22;3.17;;;;;;;;;;5111326;28;20027;-78
2022/09/11 08:06:12;;;;;;;8.57;3.10;;;;;;;;;;5110755;28;20019;-79
2022/09/11 08:08:39;;;;;;;7.00;4.35;;;;;;;;;;5111152;28;20030;-78
2022/09/11 08:11:06;;;;;;;4.93;2.70;;;;;;;;;;5109906;28;20073;-78
2022/09/11 08:15:20;;;;;;;5.55;3.13;;;;;;;;;;5111326;27;20113;-78
2022/09/11 08:17:46;;;;;;;8.55;2.95;;;;;;;;;;5111409;28;20543;-78
2022/09/11 08:20:13;;;;;;;5.03;2.90;;;;;;;;;;5110842;28;20103;-78
2022/09/11 08:22:40;;;;;;;5.43;2.90;;;;;;;;;;5111444;28;20118;-78
2022/09/11 08:25:07;;;;;;;4.60;2.47;;;;;;;;;;5111156;28;20036;-78
2022/09/11 08:27:34;;;;;;;6.28;2.60;;;;;;;;;;5110881;28;20472;-77
2022/09/11 08:30:00;;;;;;;5.47;3.22;;;;;;;;;;5111219;28;20024;-78
2022/09/11 08:32:27;;;;;;;6.78;3.40;;;;;;;;;;5111481;28;20035;-78
2022/09/11 08:39:31;;;;;;;6.72;3.10;;;;;;;;;;5111496;27;20784;-79
2022/09/11 08:42:03;;;;;;;5.18;2.63;;;;;;;;;;5111183;28;20024;-79
2022/09/11 08:44:38;;;;;;;4.85;2.35;;;;;;;;;;5111747;28;20086;-78
2022/09/11 08:47:07;;;;;;;5.82;2.55;;;;;;;;;;5111375;28;20051;-78
2022/09/11 08:49:53;;;;;;;5.45;2.53;;;;;;;;;;5111035;27;20876;-78
2022/09/11 08:52:19;;;;;;;4.13;2.78;;;;;;;;;;5111473;28;20028;-78
2022/09/11 08:54:46;;;;;;;4.75;2.25;;;;;;;;;;5111032;28;20036;-77
2022/09/11 08:57:26;;;;;;;5.45;2.50;;;;;;;;;;5111135;28;20020;-78
2022/09/11 09:00:08;;;;;;;3.83;2.08;;;;;;;;;;5111310;28;20112;-79
2022/09/11 09:02:40;;;;;;;5.45;2.08;;;;;;;;;;5110979;28;20020;-78
2022/09/11 09:05:16;;;;;;;3.75;1.70;;;;;;;;;;5111123;28;20031;-79
2022/09/11 09:08:00;;;;;;;3.78;1.77;;;;;;;;;;5110953;28;20024;-78
2022/09/11 09:10:45;;;;;;;4.93;1.60;;;;;;;;;;5110639;28;20024;-78
2022/09/11 09:15:23;;;;;;;4.22;1.50;;;;;;;;;;5112109;27;20695;-78
2022/09/11 09:18:36;;;;;;;3.75;1.40;;;;;;;;;;5112020;27;20623;-78
2022/09/11 09:21:11;;;;;;;5.72;1.85;;;;;;;;;;5111683;28;20069;-79
2022/09/11 09:23:54;;;;;;;5.88;2.50;;;;;;;;;;5111137;28;20028;-78
2022/09/11 09:28:07;;;;;;;4.22;1.58;;;;;;;;;;5091500;27;20425;-81
2022/09/11 09:30:43;;;;;;;4.47;1.30;;;;;;;;;;5090786;28;20029;-79
2022/09/11 09:33:15;;;;;;;4.30;1.70;;;;;;;;;;5091331;28;20028;-79
2022/09/11 09:35:43;;;;;;;5.38;1.50;;;;;;;;;;5090917;28;20024;-79
2022/09/11 09:38:13;;;;;;;6.00;1.70;;;;;;;;;;5090436;28;20111;-79
2022/09/11 09:40:58;;;;;;;2.08;1.10;;;;;;;;;;5089600;28;20060;-79
2022/09/11 09:43:33;;;;;;;2.30;1.00;;;;;;;;;;5089621;28;20380;-79
2022/09/11 09:46:11;;;;;;;2.78;1.13;;;;;;;;;;5090149;28;20035;-80
2022/09/11 09:48:38;;;;;;;2.83;0.90;;;;;;;;;;5090719;28;20020;-80
2022/09/11 09:51:05;;;;;;;4.18;1.20;;;;;;;;;;5090466;28;20069;-77
2022/09/11 09:53:40;;;;;;;5.60;1.52;;;;;;;;;;5090494;28;20113;-77
2022/09/11 09:56:06;;;;;;;2.50;1.10;;;;;;;;;;5089231;28;20058;-78
2022/09/11 09:58:36;;;;;;;3.25;1.45;;;;;;;;;;5090266;28;20038;-81
2022/09/11 10:01:02;;;;;;;4.68;2.95;;;;;;;;;;5090286;28;20433;-79
2022/09/11 10:03:28;;;;;;;2.45;1.08;;;;;;;;;;5090394;28;20027;-78
2022/09/11 10:05:55;;;;;;;1.58;0.63;;;;;;;;;;5090161;28;20032;-80
2022/09/11 10:08:27;;;;;;;4.10;1.00;;;;;;;;;;5090378;28;20032;-79
2022/09/11 10:10:58;;;;;;;2.80;1.02;;;;;;;;;;5090266;28;20051;-79
2022/09/11 10:13:27;;;;;;;3.05;1.30;;;;;;;;;;5089914;28;20020;-78
2022/09/11 10:15:55;;;;;;;3.70;1.40;;;;;;;;;;5090265;28;20028;-79
2022/09/11 10:18:32;;;;;;;1.42;0.95;;;;;;;;;;5090110;28;20021;-78
2022/09/11 10:21:17;;;;;;;3.10;1.30;;;;;;;;;;5089839;28;20103;-78
2022/09/11 10:23:52;;;;;;;4.15;1.27;;;;;;;;;;5090024;28;20107;-79
2022/09/11 10:26:21;;;;;;;4.45;1.00;;;;;;;;;;5089421;28;20488;-79
2022/09/11 10:28:48;;;;;;;3.05;1.35;;;;;;;;;;5089879;28;20025;-79
2022/09/11 10:31:19;;;;;;;4.25;1.27;;;;;;;;;;5089940;28;20028;-79
2022/09/11 10:33:56;;;;;;;2.20;1.00;;;;;;;;;;5089898;28;20016;-79
2022/09/11 10:36:27;;;;;;;2.38;1.30;;;;;;;;;;5089771;28;20028;-79
2022/09/11 10:38:54;;;;;;;2.45;1.35;;;;;;;;;;5079111;28;20032;-80
2022/09/11 10:41:23;;;;;;;2.35;1.13;;;;;;;;;;5075797;28;20036;-79
2022/09/11 10:44:01;;;;;;;2.15;1.02;;;;;;;;;;5076157;28;20025;-79
2022/09/11 10:46:35;;;;;;;5.00;1.45;;;;;;;;;;5076116;28;20377;-79
2022/09/11 10:49:04;;;;;;;2.75;0.88;;;;;;;;;;5075852;28;20107;-79
2022/09/11 10:51:34;;;;;;;2.22;1.10;;;;;;;;;;5074719;28;20024;-79
2022/09/11 10:54:15;;;;;;;2.38;1.00;;;;;;;;;;5076258;28;20450;-79
2022/09/11 10:57:04;;;;;;;2.22;0.82;;;;;;;;;;5076342;28;20032;-79
2022/09/11 10:59:41;;;;;;;2.08;1.20;;;;;;;;;;5075912;28;20017;-77
2022/09/11 11:02:15;;;;;;;2.03;1.10;;;;;;;;;;5075426;28;20500;-79
2022/09/11 11:04:41;;;;;;;4.63;1.17;;;;;;;;;;5075895;28;20023;-79
2022/09/11 11:07:13;;;;;;;2.17;0.90;;;;;;;;;;5075646;28;20040;-79
2022/09/11 11:09:49;;;;;;;3.50;1.17;;;;;;;;;;5075648;28;20024;-78
2022/09/11 11:12:16;;;;;;;2.63;1.05;;;;;;;;;;5075676;28;20052;-78
2022/09/11 11:14:53;;;;;;;2.55;1.00;;;;;;;;;;5075575;28;20092;-79
2022/09/11 11:17:22;;;;;;;2.40;1.40;;;;;;;;;;5073924;28;20025;-78
2022/09/11 11:20:07;;;;;;;1.83;1.15;;;;;;;;;;5075532;28;20032;-78
2022/09/11 11:22:48;;;;;;;3.92;1.20;;;;;;;;;;5075001;28;20033;-77
2022/09/11 11:25:21;;;;;;;2.97;1.63;;;;;;;;;;5075381;28;20032;-77
2022/09/11 11:27:50;;;;;;;2.72;1.10;;;;;;;;;;5075080;28;20497;-78
2022/09/11 11:30:21;;;;;;;2.10;1.17;;;;;;;;;;5074953;28;20056;-78
2022/09/11 11:32:59;;;;;;;1.95;1.52;;;;;;;;;;5075166;28;20358;-78
2022/09/11 11:35:34;;;;;;;4.50;1.50;;;;;;;;;;5075289;28;20067;-78
2022/09/11 11:38:23;;;;;;;2.85;1.30;;;;;;;;;;5074903;28;20029;-79
2022/09/11 11:40:52;;;;;;;5.53;1.38;;;;;;;;;;5075262;28;20021;-79
2022/09/11 11:43:21;;;;;;;2.92;1.35;;;;;;;;;;5074948;28;20028;-79
2022/09/11 11:45:54;;;;;;;2.78;1.27;;;;;;;;;;5074502;28;20051;-78
2022/09/11 11:48:20;;;;;;;4.43;1.73;;;;;;;;;;5075228;28;20511;-78
2022/09/11 11:50:51;;;;;;;4.55;1.27;;;;;;;;;;5072145;28;20020;-78
2022/09/11 11:53:17;;;;;;;2.13;1.10;;;;;;;;;;5074918;28;20028;-79
2022/09/11 11:55:56;;;;;;;1.88;1.23;;;;;;;;;;5074766;28;20025;-79
2022/09/11 11:58:42;;;;;;;2.67;1.30;;;;;;;;;;5074459;28;20499;-79
2022/09/11 12:01:16;;;;;;;3.35;1.60;;;;;;;;;;5073195;28;20396;-78
2022/09/11 12:03:47;;;;;;;3.83;1.00;;;;;;;;;;5074754;28;20020;-79
2022/09/11 12:06:13;;;;;;;2.60;1.40;;;;;;;;;;5074445;28;20033;-79
2022/09/11 12:08:44;;;;;;;7.18;3.50;;;;;;;;;;5073298;28;20020;-79
2022/09/11 12:11:12;;;;;;;3.58;1.52;;;;;;;;;;5074472;28;20473;-79
2022/09/11 12:13:41;;;;;;;2.97;1.30;;;;;;;;;;5073939;28;20066;-79
2022/09/11 12:16:13;;;;;;;4.20;1.30;;;;;;;;;;5074324;28;20020;-79
2022/09/11 12:18:41;;;;;;;2.75;1.38;;;;;;;;;;5074204;28;20039;-79
2022/09/11 12:21:22;;;;;;;3.08;1.27;;;;;;;;;;5074299;28;20043;-77
2022/09/11 12:23:48;;;;;;;2.95;1.05;;;;;;;;;;5074171;28;20107;-78
2022/09/11 12:26:16;;;;;;;3.47;1.20;;;;;;;;;;5073534;28;20045;-77
2022/09/11 12:28:43;;;;;;;3.63;1.25;;;;;;;;;;5074249;28;20116;-78
2022/09/11 12:31:10;;;;;;;3.20;1.60;;;;;;;;;;5074075;28;20027;-78
2022/09/11 12:33:43;;;;;;;5.68;3.42;;;;;;;;;;5073510;28;20107;-78
2022/09/11 12:36:12;;;;;;;4.20;2.88;;;;;;;;;;5073972;28;20021;-79
2022/09/11 12:38:53;;;;;;;5.35;1.48;;;;;;;;;;5074707;28;20085;-78
2022/09/11 12:41:22;;;;;;;3.65;1.50;;;;;;;;;;5073530;28;20025;-79
2022/09/11 12:43:48;;;;;;;1.98;1.10;;;;;;;;;;5073773;28;20025;-79
2022/09/11 12:46:20;;;;;;;2.55;1.40;;;;;;;;;;5073667;28;20032;-78
2022/09/11 12:48:49;;;;;;;5.00;1.15;;;;;;;;;;5073283;28;20028;-78
2022/09/11 12:51:21;;;;;;;3.75;1.40;;;;;;;;;;5073775;28;20070;-79
2022/09/11 12:53:47;;;;;;;;;;;;;;;;;;5074122;28;20047;-79
2022/09/11 12:56:18;;;;;;;2.28;1.27;;;;;;;;;;5074003;28;20070;-77
2022/09/11 12:58:46;;;;;;;3.30;1.70;;;;;;;;;;5073710;28;20031;-79
2022/09/11 13:01:24;;;;;;;5.30;2.28;;;;;;;;;;5073175;28;20020;-80
2022/09/11 13:04:02;;;;;;;5.50;1.27;;;;;;;;;;5074136;28;20487;-81
2022/09/11 13:06:46;;;;;;;2.25;1.45;;;;;;;;;;5073544;28;20068;-80
2022/09/11 13:09:32;;;;;;;3.00;1.50;;;;;;;;;;5073126;28;20044;-79
2022/09/11 13:12:16;;;;;;;2.60;1.42;;;;;;;;;;5073477;28;20389;-80
2022/09/11 13:14:46;;;;;;;3.00;1.65;;;;;;;;;;5073537;28;20032;-79
2022/09/11 13:17:24;;;;;;;5.57;1.75;;;;;;;;;;5073068;28;20020;-79
2022/09/11 13:19:51;;;;;;;2.40;1.30;;;;;;;;;;5073783;28;20111;-80
2022/09/11 13:22:21;;;;;;;4.70;1.75;;;;;;;;;;5072967;28;20058;-79
2022/09/11 13:24:47;;;;;;;3.92;1.10;;;;;;;;;;5073905;28;20078;-77
2022/09/11 13:27:25;;;;;;;4.38;1.42;;;;;;;;;;5073137;28;20055;-79
2022/09/11 13:29:53;;;;;;;3.20;1.15;;;;;;;;;;5073003;28;20028;-78
2022/09/11 13:32:20;;;;;;;3.75;1.40;;;;;;;;;;5073310;28;20020;-77
2022/09/11 13:34:48;;;;;;;2.17;1.10;;;;;;;;;;5073549;28;20023;-79
2022/09/11 13:37:19;;;;;;;3.17;1.40;;;;;;;;;;5071699;28;20027;-80
2022/09/11 13:39:46;;;;;;;2.90;1.30;;;;;;;;;;5073516;28;20020;-81
2022/09/11 13:42:16;;;;;;;3.92;1.35;;;;;;;;;;5071841;28;20257;-80
2022/09/11 13:44:50;;;;;;;5.93;1.80;;;;;;;;;;5072798;28;20045;-78
2022/09/11 13:47:21;;;;;;;2.55;1.13;;;;;;;;;;5073204;28;20037;-80
2022/09/11 13:49:48;;;;;;;3.22;1.48;;;;;;;;;;5073134;28;20013;-79
2022/09/11 13:52:15;;;;;;;4.95;1.50;;;;;;;;;;5072674;28;20046;-78
2022/09/11 13:54:45;;;;;;;3.75;1.38;;;;;;;;;;5071882;28;20021;-78
2022/09/11 13:57:15;;;;;;;3.42;1.55;;;;;;;;;;5073014;28;20384;-78
2022/09/11 13:59:46;;;;;;;3.42;1.20;;;;;;;;;;5073252;28;20025;-78
2022/09/11 14:02:22;;;;;;;2.88;1.33;;;;;;;;;;5073360;28;20021;-80
2022/09/11 14:04:51;;;;;;;4.05;1.50;;;;;;;;;;5072767;28;20020;-80
2022/09/11 14:07:20;;;;;;;3.05;1.50;;;;;;;;;;5072727;28;20122;-81
2022/09/11 14:09:47;;;;;;;2.85;1.83;;;;;;;;;;5073027;28;20017;-78
2022/09/11 14:12:13;;;;;;;2.70;1.42;;;;;;;;;;5072584;28;20435;-78
2022/09/11 14:14:45;;;;;;;13.15;2.13;;;;;;;;;;5076247;28;20078;-77
2022/09/11 14:17:12;;;;;;;7.22;3.05;;;;;;;;;;5076783;28;20021;-78
2022/09/11 14:19:42;;;;;;;4.32;2.33;;;;;;;;;;5074960;28;20469;-77
2022/09/11 14:22:15;;;;;;;6.85;2.47;;;;;;;;;;5076504;28;20468;-77
2022/09/11 14:24:48;;;;;;;5.40;2.60;;;;;;;;;;5075257;28;20020;-78
2022/09/11 14:27:36;;;;;;;9.00;3.20;;;;;;;;;;5075888;28;20049;-79
2022/09/11 14:30:22;;;;;;;6.60;3.08;;;;;;;;;;5076460;28;20066;-79
2022/09/11 14:33:05;;;;;;;8.63;3.60;;;;;;;;;;5074864;28;20552;-79
2022/09/11 14:35:32;;;;;;;7.22;3.50;;;;;;;;;;5076491;28;20028;-77
2022/09/11 14:37:58;;;;;;;8.88;3.85;;;;;;;;;;5076403;28;20016;-79
2022/09/11 14:40:25;;;;;;;5.63;3.25;;;;;;;;;;5075909;28;20508;-79
2022/09/11 14:42:52;;;;;;;7.43;3.38;;;;;;;;;;5076277;28;20027;-80
2022/09/11 14:45:23;;;;;;;5.90;3.90;;;;;;;;;;5074856;28;20078;-78
2022/09/11 14:47:49;;;;;;;6.37;4.27;;;;;;;;;;5075729;28;20037;-79
2022/09/11 14:50:16;;;;;;;8.30;5.13;;;;;;;;;;5076079;28;20075;-79
2022/09/11 14:52:42;;;;;;;6.28;4.15;;;;;;;;;;5074749;28;20489;-77
2022/09/11 14:55:15;;;;;;;7.72;4.60;;;;;;;;;;5074285;28;20025;-80
2022/09/11 14:57:41;;;;;;;9.18;5.57;;;;;;;;;;5076142;28;20065;-79
2022/09/11 15:00:09;;;;;;;8.02;5.15;;;;;;;;;;5075939;28;20028;-80
2022/09/11 15:02:35;;;;;;;10.38;5.45;;;;;;;;;;5075354;28;20103;-80
2022/09/11 15:05:01;;;;;;;8.80;5.25;;;;;;;;;;5075661;28;20030;-79
2022/09/11 15:07:27;;;;;;;7.60;5.05;;;;;;;;;;5075476;28;20480;-78
2022/09/11 15:09:53;;;;;;;8.15;5.38;;;;;;;;;;5075729;28;20024;-80
2022/09/11 15:12:20;;;;;;;7.70;4.93;;;;;;;;;;5075640;28;20024;-77
2022/09/11 15:14:46;;;;;;;10.05;6.22;;;;;;;;;;5075153;28;20675;-80
2022/09/11 15:17:18;;;;;;;10.18;5.63;;;;;;;;;;5075572;28;20029;-79
2022/09/11 15:19:49;;;;;;;12.98;7.00;;;;;;;;;;5075507;28;20035;-77
2022/09/11 15:22:15;;;;;;;12.45;7.78;;;;;;;;;;5075329;28;20107;-79
2022/09/11 15:26:01;;;;;;;11.93;8.35;;;;;;;;;;5111849;27;20762;-77
2022/09/11 15:28:30;;;;;;;16.38;8.65;;;;;;;;;;5111427;28;20042;-79
2022/09/11 15:30:58;;;;;;;13.32;8.05;;;;;;;;;;5111161;28;20028;-80
2022/09/11 15:33:27;;;;;;;11.75;7.82;;;;;;;;;;5111279;28;20023;-79
2022/09/11 15:35:55;;;;;;;13.10;8.65;;;;;;;;;;5110926;28;20794;-79
2022/09/11 15:38:22;;;;;;;12.55;8.05;;;;;;;;;;5111215;28;20103;-79
2022/09/11 15:40:55;;;;;;;10.35;7.85;;;;;;;;;;5111052;28;20024;-79
2022/09/11 15:43:22;;;;;;;11.70;8.10;;;;;;;;;;5110827;28;20023;-79
2022/09/11 15:46:10;;;;;;;11.18;7.57;;;;;;;;;;5071480;28;20380;-78
2022/09/11 15:49:43;;;;;;;9.93;7.32;;;;;;;;;;5111459;27;20808;-78
2022/09/11 15:52:10;;;;;;;9.57;7.30;;;;;;;;;;5111858;28;20031;-78
2022/09/11 15:54:36;;;;;;;11.45;7.13;;;;;;;;;;5111487;28;20028;-78
2022/09/11 15:57:02;;;;;;;11.32;6.53;;;;;;;;;;5111034;28;20024;-78
2022/09/11 15:59:28;;;;;;;8.50;5.63;;;;;;;;;;5111255;28;20035;-80
2022/09/11 16:01:55;;;;;;;8.70;5.32;;;;;;;;;;5111119;28;20396;-79
2022/09/11 16:05:04;;;;;;;8.32;5.57;;;;;;;;;;5111298;27;20388;-79
2022/09/11 16:07:30;;;;;;;8.25;5.80;;;;;;;;;;5111406;28;20048;-78
2022/09/11 16:09:57;;;;;;;9.73;6.25;;;;;;;;;;5111318;28;20448;-81
2022/09/11 16:12:23;;;;;;;9.52;6.72;;;;;;;;;;5110927;28;20091;-79
2022/09/11 16:14:51;;;;;;;9.00;6.55;;;;;;;;;;5111190;28;20062;-79
2022/09/11 16:17:19;;;;;;;10.95;6.90;;;;;;;;;;5111109;28;20468;-79
2022/09/11 16:19:46;;;;;;;11.43;8.40;;;;;;;;;;5109522;28;20077;-78
2022/09/11 16:22:45;;;;;;;14.77;7.32;;;;;;;;;;5112002;27;20828;-77
2022/09/11 16:25:11;;;;;;;11.20;6.72;;;;;;;;;;5110966;28;20053;-78
2022/09/11 16:27:37;;;;;;;9.98;6.45;;;;;;;;;;5111263;28;20027;-78
2022/09/11 16:30:03;;;;;;;10.10;6.18;;;;;;;;;;5111446;28;20020;-77
2022/09/11 16:36:10;;;;;;;8.82;5.80;;;;;;;;;;5112236;27;20557;-79
2022/09/11 16:39:24;;;;;;;8.93;5.38;;;;;;;;;;5111132;27;20676;-80
2022/09/11 16:41:50;;;;;;;8.68;5.10;;;;;;;;;;5111507;28;20421;-80
2022/09/11 16:47:29;;;;;;;8.23;5.25;;;;;;;;;;5111364;27;20652;-78
2022/09/11 16:51:02;;;;;;;10.27;5.25;;;;;;;;;;5111509;27;20405;-78
2022/09/11 16:53:55;;;;;;;8.65;5.25;;;;;;;;;;5105148;27;1433842;-78
2022/09/11 16:59:34;;;;;;;9.30;6.22;;;;;;;;;;5111683;27;20577;-80
2022/09/11 17:02:01;;;;;;;8.65;5.45;;;;;;;;;;5109576;28;20537;-80
2022/09/11 17:04:27;;;;;;;10.32;5.43;;;;;;;;;;5111447;28;20032;-80
2022/09/11 17:08:07;;;;;;;8.95;5.78;;;;;;;;;;5111544;27;20543;-80
2022/09/11 17:11:13;;;;;;;10.07;5.97;;;;;;;;;;5173663;27;20167;-78
2022/09/11 17:14:18;;;;;;;9.20;4.45;;;;;;;;;;5111184;27;20557;-77
2022/09/11 17:16:45;;;;;;;233.48;106.22;;;;;;;;;;5111592;28;20024;-78